sensor_id;sensor_type;location;lat;lon;timestamp;pressure;altitude;pressure_sealevel;temperature;humidity
66664;BME280;59683;51.428;-1.994;2023-02-13T14:11:01;102319.53;;;11.23;100.00
66664;BME280;59683;51.428;-1.994;2023-02-13T14:13:35;102304.22;;;11.28;100.00
66664;BME280;59683;51.428;-1.994;2023-02-13T14:16:02;102321.59;;;11.33;100.00
66664;BME280;59683;51.428;-1.994;2023-02-13T14:18:29;102309.47;;;11.29;100.00
66664;BME280;59683;51.428;-1.994;2023-02-13T14:21:01;102303.91;;;11.18;100.00
66664;BME280;59683;51.428;-1.994;2023-02-13T14:23:47;102314.16;;;11.24;100.00
66664;BME280;59683;51.428;-1.994;2023-02-13T14:31:31;102303.81;;;11.35;100.00
66664;BME280;59683;51.428;-1.994;2023-02-13T14:37:23;102291.25;;;11.23;100.00
66664;BME280;59683;51.428;-1.994;2023-02-13T14:46:30;102280.13;;;11.16;100.00
66664;BME280;59683;51.428;-1.994;2023-02-13T14:49:01;102278.59;;;11.12;100.00
66664;BME280;59683;51.428;-1.994;2023-02-13T14:51:34;102276.97;;;11.26;100.00
66664;BME280;59683;51.428;-1.994;2023-02-13T14:54:17;102279.19;;;11.33;100.00
66664;BME280;59683;51.428;-1.994;2023-02-13T14:56:46;102274.06;;;11.30;100.00
66664;BME280;59683;51.428;-1.994;2023-02-13T14:59:20;102272.19;;;11.32;100.00
66664;BME280;59683;51.428;-1.994;2023-02-13T15:04:21;102279.72;;;11.40;100.00
66664;BME280;59683;51.428;-1.994;2023-02-13T15:06:51;102270.22;;;11.36;100.00
66664;BME280;59683;51.428;-1.994;2023-02-13T15:09:39;102259.28;;;11.26;100.00
66664;BME280;59683;51.428;-1.994;2023-02-13T15:14:49;102261.66;;;11.31;100.00
66664;BME280;59683;51.428;-1.994;2023-02-13T15:17:17;102249.25;;;11.31;100.00
66664;BME280;59683;51.428;-1.994;2023-02-13T15:19:49;102237.97;;;11.28;100.00
66664;BME280;59683;51.428;-1.994;2023-02-13T15:22:25;102244.19;;;11.42;100.00
66664;BME280;59683;51.428;-1.994;2023-02-13T15:24:54;102241.78;;;11.54;100.00
66664;BME280;59683;51.428;-1.994;2023-02-13T15:27:39;102244.03;;;11.76;100.00
66664;BME280;59683;51.428;-1.994;2023-02-13T15:35:26;102252.41;;;12.14;100.00
66664;BME280;59683;51.428;-1.994;2023-02-13T15:37:52;102252.66;;;11.95;100.00
66664;BME280;59683;51.428;-1.994;2023-02-13T15:42:52;102244.28;;;12.17;100.00
66664;BME280;59683;51.428;-1.994;2023-02-13T15:45:19;102254.44;;;12.53;100.00
66664;BME280;59683;51.428;-1.994;2023-02-13T15:47:47;102247.34;;;12.68;100.00
66664;BME280;59683;51.428;-1.994;2023-02-13T15:50:26;102243.13;;;12.93;100.00
66664;BME280;59683;51.428;-1.994;2023-02-13T15:52:53;102249.25;;;13.49;100.00
66664;BME280;59683;51.428;-1.994;2023-02-13T15:55:24;102242.69;;;13.54;100.00
66664;BME280;59683;51.428;-1.994;2023-02-13T15:57:53;102247.81;;;13.30;100.00
66664;BME280;59683;51.428;-1.994;2023-02-13T16:00:25;102243.91;;;12.80;100.00
66664;BME280;59683;51.428;-1.994;2023-02-13T16:02:52;102238.22;;;12.29;100.00
66664;BME280;59683;51.428;-1.994;2023-02-13T16:05:19;102237.72;;;11.78;100.00
66664;BME280;59683;51.428;-1.994;2023-02-13T16:07:56;102238.41;;;11.36;100.00
66664;BME280;59683;51.428;-1.994;2023-02-13T16:13:26;102239.56;;;10.51;100.00
66664;BME280;59683;51.428;-1.994;2023-02-13T16:15:52;102234.34;;;10.50;100.00
66664;BME280;59683;51.428;-1.994;2023-02-13T16:18:19;102244.66;;;10.87;100.00
66664;BME280;59683;51.428;-1.994;2023-02-13T16:20:45;102232.00;;;11.08;100.00
66664;BME280;59683;51.428;-1.994;2023-02-13T16:23:19;102240.28;;;11.34;100.00
66664;BME280;59683;51.428;-1.994;2023-02-13T16:25:46;102241.78;;;11.54;100.00
66664;BME280;59683;51.428;-1.994;2023-02-13T16:28:18;102245.66;;;11.48;100.00
66664;BME280;59683;51.428;-1.994;2023-02-13T16:30:51;102254.53;;;11.63;100.00
66664;BME280;59683;51.428;-1.994;2023-02-13T16:33:22;102245.78;;;11.61;100.00
66664;BME280;59683;51.428;-1.994;2023-02-13T16:35:53;102237.38;;;11.38;100.00
66664;BME280;59683;51.428;-1.994;2023-02-13T16:38:35;102239.69;;;11.29;100.00
66664;BME280;59683;51.428;-1.994;2023-02-13T19:14:19;102311.13;;;3.42;100.00
66664;BME280;59683;51.428;-1.994;2023-02-13T19:16:48;102313.00;;;3.37;100.00
66664;BME280;59683;51.428;-1.994;2023-02-13T19:42:30;102304.28;;;2.96;100.00
66664;BME280;59683;51.428;-1.994;2023-02-13T19:44:56;102320.28;;;3.24;100.00
66664;BME280;59683;51.428;-1.994;2023-02-13T19:55:12;102324.59;;;3.64;100.00
66664;BME280;59683;51.428;-1.994;2023-02-13T22:17:20;102316.28;;;3.47;100.00
66664;BME280;59683;51.428;-1.994;2023-02-13T22:19:48;102320.50;;;3.52;100.00
66664;BME280;59683;51.428;-1.994;2023-02-13T22:22:14;102315.34;;;3.49;100.00
66664;BME280;59683;51.428;-1.994;2023-02-13T22:35:01;102319.09;;;3.37;100.00
66664;BME280;59683;51.428;-1.994;2023-02-13T22:50:23;102300.38;;;3.15;100.00
66664;BME280;59683;51.428;-1.994;2023-02-13T22:52:50;102310.03;;;3.13;100.00
66664;BME280;59683;51.428;-1.994;2023-02-13T22:56:09;102315.13;;;3.21;100.00
66664;BME280;59683;51.428;-1.994;2023-02-13T23:00:00;102310.69;;;3.25;100.00
66664;BME280;59683;51.428;-1.994;2023-02-13T23:06:47;102314.88;;;3.32;100.00
66664;BME280;59683;51.428;-1.994;2023-02-13T23:16:40;102313.47;;;3.15;100.00
66664;BME280;59683;51.428;-1.994;2023-02-13T23:28:18;102299.44;;;2.78;100.00
66664;BME280;59683;51.428;-1.994;2023-02-13T23:30:45;102308.88;;;2.85;100.00
66664;BME280;59683;51.428;-1.994;2023-02-13T23:33:12;102297.63;;;2.83;100.00
66664;BME280;59683;51.428;-1.994;2023-02-13T23:35:38;102290.63;;;2.82;100.00
66664;BME280;59683;51.428;-1.994;2023-02-13T23:38:04;102300.78;;;2.99;100.00
66664;BME280;59683;51.428;-1.994;2023-02-13T23:44:28;102286.09;;;2.91;100.00
66664;BME280;59683;51.428;-1.994;2023-02-13T23:53:13;102296.44;;;2.96;100.00
66664;BME280;59683;51.428;-1.994;2023-02-13T23:55:39;102280.97;;;2.85;100.00
66664;BME280;59683;51.428;-1.994;2023-02-13T23:58:08;102288.13;;;2.79;100.00
